sensor_id;sensor_type;location;lat;lon;timestamp;P1;durP1;ratioP1;P2;durP2;ratioP2
5349;SDS011;2697;42.144;24.794;2024-02-23T00:00:57;30.60;;;14.83;;
5349;SDS011;2697;42.144;24.794;2024-02-23T00:03:23;34.20;;;17.80;;
5349;SDS011;2697;42.144;24.794;2024-02-23T00:05:48;34.60;;;17.00;;
5349;SDS011;2697;42.144;24.794;2024-02-23T00:08:13;34.27;;;15.83;;
5349;SDS011;2697;42.144;24.794;2024-02-23T00:10:39;29.80;;;15.20;;
5349;SDS011;2697;42.144;24.794;2024-02-23T00:13:04;31.23;;;15.97;;
5349;SDS011;2697;42.144;24.794;2024-02-23T00:15:30;36.00;;;17.23;;
5349;SDS011;2697;42.144;24.794;2024-02-23T00:17:55;37.50;;;17.57;;
5349;SDS011;2697;42.144;24.794;2024-02-23T00:20:20;31.40;;;16.27;;
5349;SDS011;2697;42.144;24.794;2024-02-23T00:22:46;35.90;;;17.77;;
5349;SDS011;2697;42.144;24.794;2024-02-23T00:25:11;32.17;;;16.53;;
5349;SDS011;2697;42.144;24.794;2024-02-23T00:27:37;47.67;;;15.90;;
5349;SDS011;2697;42.144;24.794;2024-02-23T00:30:04;38.87;;;19.13;;
5349;SDS011;2697;42.144;24.794;2024-02-23T00:32:30;35.03;;;17.27;;
5349;SDS011;2697;42.144;24.794;2024-02-23T00:37:22;34.87;;;17.30;;
5349;SDS011;2697;42.144;24.794;2024-02-23T00:39:47;38.03;;;17.10;;
5349;SDS011;2697;42.144;24.794;2024-02-23T00:42:13;37.17;;;17.30;;
5349;SDS011;2697;42.144;24.794;2024-02-23T00:44:38;43.47;;;17.50;;
5349;SDS011;2697;42.144;24.794;2024-02-23T00:47:04;47.90;;;19.20;;
5349;SDS011;2697;42.144;24.794;2024-02-23T00:49:29;49.53;;;18.00;;
5349;SDS011;2697;42.144;24.794;2024-02-23T00:51:55;52.23;;;17.20;;
5349;SDS011;2697;42.144;24.794;2024-02-23T00:54:20;33.77;;;18.00;;
5349;SDS011;2697;42.144;24.794;2024-02-23T00:56:46;43.60;;;19.17;;
5349;SDS011;2697;42.144;24.794;2024-02-23T00:59:12;39.97;;;16.97;;
5349;SDS011;2697;42.144;24.794;2024-02-23T01:01:37;31.33;;;18.17;;
5349;SDS011;2697;42.144;24.794;2024-02-23T01:04:03;40.10;;;19.13;;
5349;SDS011;2697;42.144;24.794;2024-02-23T01:06:28;37.10;;;18.70;;
5349;SDS011;2697;42.144;24.794;2024-02-23T01:08:53;38.43;;;18.30;;
5349;SDS011;2697;42.144;24.794;2024-02-23T01:11:19;36.87;;;17.70;;
5349;SDS011;2697;42.144;24.794;2024-02-23T01:13:44;37.00;;;17.27;;
5349;SDS011;2697;42.144;24.794;2024-02-23T01:16:10;34.30;;;16.93;;
5349;SDS011;2697;42.144;24.794;2024-02-23T01:18:35;32.40;;;18.07;;
5349;SDS011;2697;42.144;24.794;2024-02-23T01:21:00;34.13;;;18.20;;
5349;SDS011;2697;42.144;24.794;2024-02-23T01:23:26;36.83;;;17.93;;
5349;SDS011;2697;42.144;24.794;2024-02-23T01:25:51;34.40;;;18.50;;
5349;SDS011;2697;42.144;24.794;2024-02-23T01:28:17;37.10;;;17.40;;
5349;SDS011;2697;42.144;24.794;2024-02-23T01:30:42;39.20;;;17.93;;
5349;SDS011;2697;42.144;24.794;2024-02-23T01:33:08;36.57;;;18.80;;
5349;SDS011;2697;42.144;24.794;2024-02-23T01:35:33;43.13;;;19.83;;
5349;SDS011;2697;42.144;24.794;2024-02-23T01:37:59;54.40;;;18.70;;
5349;SDS011;2697;42.144;24.794;2024-02-23T01:40:24;40.00;;;19.27;;
5349;SDS011;2697;42.144;24.794;2024-02-23T01:42:59;40.40;;;18.90;;
5349;SDS011;2697;42.144;24.794;2024-02-23T01:45:28;37.70;;;18.77;;
5349;SDS011;2697;42.144;24.794;2024-02-23T01:47:55;44.27;;;18.60;;
5349;SDS011;2697;42.144;24.794;2024-02-23T01:50:20;47.90;;;18.77;;
5349;SDS011;2697;42.144;24.794;2024-02-23T01:52:46;40.20;;;17.77;;
5349;SDS011;2697;42.144;24.794;2024-02-23T01:55:11;35.20;;;18.90;;
5349;SDS011;2697;42.144;24.794;2024-02-23T01:57:37;37.80;;;18.63;;
5349;SDS011;2697;42.144;24.794;2024-02-23T02:00:02;54.00;;;17.30;;
5349;SDS011;2697;42.144;24.794;2024-02-23T02:02:29;37.00;;;18.57;;
5349;SDS011;2697;42.144;24.794;2024-02-23T02:04:55;39.03;;;19.87;;
5349;SDS011;2697;42.144;24.794;2024-02-23T02:07:20;37.43;;;17.47;;
5349;SDS011;2697;42.144;24.794;2024-02-23T02:09:47;39.90;;;19.70;;
5349;SDS011;2697;42.144;24.794;2024-02-23T02:12:13;36.60;;;18.30;;
5349;SDS011;2697;42.144;24.794;2024-02-23T02:14:38;39.47;;;18.30;;
5349;SDS011;2697;42.144;24.794;2024-02-23T02:17:04;34.77;;;18.00;;
5349;SDS011;2697;42.144;24.794;2024-02-23T02:19:29;37.50;;;18.77;;
5349;SDS011;2697;42.144;24.794;2024-02-23T02:21:55;31.97;;;17.57;;
5349;SDS011;2697;42.144;24.794;2024-02-23T02:24:21;32.27;;;17.20;;
5349;SDS011;2697;42.144;24.794;2024-02-23T02:26:46;37.13;;;17.33;;
5349;SDS011;2697;42.144;24.794;2024-02-23T02:29:15;38.77;;;17.80;;
5349;SDS011;2697;42.144;24.794;2024-02-23T02:31:40;36.07;;;18.70;;
5349;SDS011;2697;42.144;24.794;2024-02-23T02:34:06;35.30;;;18.50;;
5349;SDS011;2697;42.144;24.794;2024-02-23T02:36:31;34.43;;;16.00;;
5349;SDS011;2697;42.144;24.794;2024-02-23T02:38:57;34.40;;;18.13;;
5349;SDS011;2697;42.144;24.794;2024-02-23T02:41:22;49.27;;;19.07;;
5349;SDS011;2697;42.144;24.794;2024-02-23T02:43:51;31.90;;;16.53;;
5349;SDS011;2697;42.144;24.794;2024-02-23T02:46:16;39.67;;;18.53;;
5349;SDS011;2697;42.144;24.794;2024-02-23T02:48:42;30.03;;;15.73;;
5349;SDS011;2697;42.144;24.794;2024-02-23T02:51:07;32.53;;;17.40;;
5349;SDS011;2697;42.144;24.794;2024-02-23T02:53:32;37.67;;;18.63;;
5349;SDS011;2697;42.144;24.794;2024-02-23T02:55:58;29.33;;;16.60;;
5349;SDS011;2697;42.144;24.794;2024-02-23T02:58:23;35.87;;;17.43;;
5349;SDS011;2697;42.144;24.794;2024-02-23T03:00:49;31.30;;;16.90;;
5349;SDS011;2697;42.144;24.794;2024-02-23T03:03:14;34.23;;;16.60;;
5349;SDS011;2697;42.144;24.794;2024-02-23T03:05:39;34.03;;;16.90;;
5349;SDS011;2697;42.144;24.794;2024-02-23T03:08:05;40.53;;;19.70;;
5349;SDS011;2697;42.144;24.794;2024-02-23T03:10:31;39.17;;;19.63;;
5349;SDS011;2697;42.144;24.794;2024-02-23T03:12:56;41.20;;;18.83;;
5349;SDS011;2697;42.144;24.794;2024-02-23T03:15:21;41.23;;;20.23;;
5349;SDS011;2697;42.144;24.794;2024-02-23T03:17:47;43.70;;;19.20;;
5349;SDS011;2697;42.144;24.794;2024-02-23T03:20:12;42.90;;;18.87;;
5349;SDS011;2697;42.144;24.794;2024-02-23T03:22:38;46.83;;;20.80;;
5349;SDS011;2697;42.144;24.794;2024-02-23T03:25:03;37.67;;;17.73;;
5349;SDS011;2697;42.144;24.794;2024-02-23T03:27:33;38.13;;;16.87;;
5349;SDS011;2697;42.144;24.794;2024-02-23T03:29:59;30.43;;;17.93;;
5349;SDS011;2697;42.144;24.794;2024-02-23T03:32:24;39.07;;;17.53;;
5349;SDS011;2697;42.144;24.794;2024-02-23T03:34:50;35.70;;;15.93;;
5349;SDS011;2697;42.144;24.794;2024-02-23T03:37:15;40.47;;;16.97;;
5349;SDS011;2697;42.144;24.794;2024-02-23T03:39:40;38.50;;;16.67;;
5349;SDS011;2697;42.144;24.794;2024-02-23T03:42:06;33.47;;;18.50;;
5349;SDS011;2697;42.144;24.794;2024-02-23T03:44:31;45.03;;;17.53;;
5349;SDS011;2697;42.144;24.794;2024-02-23T03:46:57;34.43;;;14.07;;
5349;SDS011;2697;42.144;24.794;2024-02-23T03:49:22;36.63;;;17.63;;
5349;SDS011;2697;42.144;24.794;2024-02-23T03:51:47;36.67;;;16.40;;
5349;SDS011;2697;42.144;24.794;2024-02-23T03:54:13;35.40;;;15.47;;
5349;SDS011;2697;42.144;24.794;2024-02-23T03:56:39;40.50;;;17.90;;
5349;SDS011;2697;42.144;24.794;2024-02-23T03:59:05;33.17;;;14.97;;
5349;SDS011;2697;42.144;24.794;2024-02-23T04:01:30;33.63;;;16.13;;
5349;SDS011;2697;42.144;24.794;2024-02-23T04:03:56;43.63;;;18.20;;
5349;SDS011;2697;42.144;24.794;2024-02-23T04:06:21;37.73;;;16.97;;
5349;SDS011;2697;42.144;24.794;2024-02-23T04:08:47;34.93;;;16.60;;
5349;SDS011;2697;42.144;24.794;2024-02-23T04:11:12;35.03;;;16.03;;
5349;SDS011;2697;42.144;24.794;2024-02-23T04:13:38;32.60;;;16.70;;
5349;SDS011;2697;42.144;24.794;2024-02-23T04:16:03;34.90;;;17.30;;
5349;SDS011;2697;42.144;24.794;2024-02-23T04:18:29;41.13;;;15.70;;
5349;SDS011;2697;42.144;24.794;2024-02-23T04:20:54;48.83;;;16.90;;
5349;SDS011;2697;42.144;24.794;2024-02-23T04:23:20;36.07;;;18.17;;
5349;SDS011;2697;42.144;24.794;2024-02-23T04:25:45;37.73;;;17.70;;
5349;SDS011;2697;42.144;24.794;2024-02-23T04:28:11;44.10;;;17.67;;
5349;SDS011;2697;42.144;24.794;2024-02-23T04:30:36;50.47;;;19.83;;
5349;SDS011;2697;42.144;24.794;2024-02-23T04:33:02;39.07;;;17.30;;
5349;SDS011;2697;42.144;24.794;2024-02-23T04:35:27;49.40;;;17.50;;
5349;SDS011;2697;42.144;24.794;2024-02-23T04:37:52;59.23;;;19.00;;
5349;SDS011;2697;42.144;24.794;2024-02-23T04:40:18;57.77;;;20.70;;
5349;SDS011;2697;42.144;24.794;2024-02-23T04:42:43;42.83;;;19.33;;
5349;SDS011;2697;42.144;24.794;2024-02-23T04:45:10;43.33;;;18.37;;
5349;SDS011;2697;42.144;24.794;2024-02-23T04:47:36;53.47;;;20.00;;
5349;SDS011;2697;42.144;24.794;2024-02-23T04:50:01;39.20;;;20.30;;
5349;SDS011;2697;42.144;24.794;2024-02-23T04:52:28;45.47;;;19.10;;
5349;SDS011;2697;42.144;24.794;2024-02-23T04:54:53;46.17;;;20.30;;
5349;SDS011;2697;42.144;24.794;2024-02-23T04:57:19;42.83;;;18.97;;
5349;SDS011;2697;42.144;24.794;2024-02-23T04:59:44;46.93;;;18.87;;
5349;SDS011;2697;42.144;24.794;2024-02-23T05:02:10;43.10;;;19.00;;
5349;SDS011;2697;42.144;24.794;2024-02-23T05:04:35;39.17;;;19.20;;
5349;SDS011;2697;42.144;24.794;2024-02-23T05:07:00;41.83;;;19.23;;
5349;SDS011;2697;42.144;24.794;2024-02-23T05:09:26;44.93;;;20.40;;
5349;SDS011;2697;42.144;24.794;2024-02-23T05:11:52;43.10;;;19.40;;
5349;SDS011;2697;42.144;24.794;2024-02-23T05:14:17;44.93;;;18.70;;
5349;SDS011;2697;42.144;24.794;2024-02-23T05:16:42;41.33;;;20.10;;
5349;SDS011;2697;42.144;24.794;2024-02-23T05:19:08;44.30;;;18.33;;
5349;SDS011;2697;42.144;24.794;2024-02-23T05:21:33;37.43;;;16.00;;
5349;SDS011;2697;42.144;24.794;2024-02-23T05:23:58;37.03;;;19.00;;
5349;SDS011;2697;42.144;24.794;2024-02-23T05:26:24;88.23;;;18.87;;
5349;SDS011;2697;42.144;24.794;2024-02-23T05:28:49;42.57;;;19.80;;
5349;SDS011;2697;42.144;24.794;2024-02-23T05:31:15;40.23;;;19.07;;
5349;SDS011;2697;42.144;24.794;2024-02-23T05:33:40;44.80;;;20.80;;
5349;SDS011;2697;42.144;24.794;2024-02-23T05:36:06;39.40;;;17.87;;
5349;SDS011;2697;42.144;24.794;2024-02-23T05:38:32;32.33;;;18.13;;
5349;SDS011;2697;42.144;24.794;2024-02-23T05:40:57;49.43;;;18.97;;
5349;SDS011;2697;42.144;24.794;2024-02-23T05:43:23;39.37;;;18.80;;
5349;SDS011;2697;42.144;24.794;2024-02-23T05:45:48;30.70;;;16.87;;
5349;SDS011;2697;42.144;24.794;2024-02-23T05:48:14;42.73;;;18.20;;
5349;SDS011;2697;42.144;24.794;2024-02-23T05:50:39;46.90;;;19.63;;
5349;SDS011;2697;42.144;24.794;2024-02-23T05:53:05;39.10;;;16.90;;
5349;SDS011;2697;42.144;24.794;2024-02-23T05:55:30;40.83;;;18.37;;
5349;SDS011;2697;42.144;24.794;2024-02-23T05:57:56;33.00;;;16.20;;
5349;SDS011;2697;42.144;24.794;2024-02-23T06:00:21;45.33;;;18.17;;
5349;SDS011;2697;42.144;24.794;2024-02-23T06:02:47;41.03;;;18.60;;
5349;SDS011;2697;42.144;24.794;2024-02-23T06:05:13;46.57;;;19.23;;
5349;SDS011;2697;42.144;24.794;2024-02-23T06:07:38;37.17;;;18.73;;
5349;SDS011;2697;42.144;24.794;2024-02-23T06:10:05;40.77;;;19.67;;
5349;SDS011;2697;42.144;24.794;2024-02-23T06:12:30;41.03;;;16.30;;
5349;SDS011;2697;42.144;24.794;2024-02-23T06:14:56;42.87;;;19.80;;
5349;SDS011;2697;42.144;24.794;2024-02-23T06:17:23;44.67;;;17.60;;
5349;SDS011;2697;42.144;24.794;2024-02-23T06:19:48;40.47;;;14.23;;
5349;SDS011;2697;42.144;24.794;2024-02-23T06:22:14;40.40;;;15.40;;
5349;SDS011;2697;42.144;24.794;2024-02-23T06:24:42;45.03;;;17.27;;
5349;SDS011;2697;42.144;24.794;2024-02-23T06:27:07;40.00;;;16.30;;
5349;SDS011;2697;42.144;24.794;2024-02-23T06:29:33;49.37;;;17.50;;
5349;SDS011;2697;42.144;24.794;2024-02-23T06:31:58;37.63;;;16.80;;
5349;SDS011;2697;42.144;24.794;2024-02-23T06:34:26;33.60;;;16.20;;
5349;SDS011;2697;42.144;24.794;2024-02-23T06:36:51;36.33;;;16.57;;
5349;SDS011;2697;42.144;24.794;2024-02-23T06:39:17;39.90;;;17.53;;
5349;SDS011;2697;42.144;24.794;2024-02-23T06:41:43;40.33;;;17.77;;
5349;SDS011;2697;42.144;24.794;2024-02-23T06:44:08;50.10;;;17.00;;
5349;SDS011;2697;42.144;24.794;2024-02-23T06:46:34;35.40;;;17.90;;
5349;SDS011;2697;42.144;24.794;2024-02-23T06:48:59;31.63;;;17.57;;
5349;SDS011;2697;42.144;24.794;2024-02-23T06:51:25;39.63;;;18.90;;
5349;SDS011;2697;42.144;24.794;2024-02-23T06:53:50;41.53;;;18.10;;
5349;SDS011;2697;42.144;24.794;2024-02-23T06:56:15;35.60;;;17.63;;
5349;SDS011;2697;42.144;24.794;2024-02-23T06:58:41;29.93;;;16.43;;
5349;SDS011;2697;42.144;24.794;2024-02-23T07:01:06;39.90;;;18.47;;
5349;SDS011;2697;42.144;24.794;2024-02-23T07:03:36;38.93;;;19.17;;
5349;SDS011;2697;42.144;24.794;2024-02-23T07:06:01;41.63;;;15.90;;
5349;SDS011;2697;42.144;24.794;2024-02-23T07:08:28;42.67;;;16.53;;
5349;SDS011;2697;42.144;24.794;2024-02-23T07:10:53;52.17;;;16.83;;
5349;SDS011;2697;42.144;24.794;2024-02-23T07:13:20;40.23;;;17.43;;
5349;SDS011;2697;42.144;24.794;2024-02-23T07:15:45;41.63;;;19.37;;
5349;SDS011;2697;42.144;24.794;2024-02-23T07:18:10;36.60;;;17.53;;
5349;SDS011;2697;42.144;24.794;2024-02-23T07:20:36;39.20;;;19.40;;
5349;SDS011;2697;42.144;24.794;2024-02-23T07:23:02;36.50;;;18.30;;
5349;SDS011;2697;42.144;24.794;2024-02-23T07:25:27;38.97;;;18.10;;
5349;SDS011;2697;42.144;24.794;2024-02-23T07:27:53;34.40;;;18.03;;
5349;SDS011;2697;42.144;24.794;2024-02-23T07:30:18;27.70;;;14.97;;
5349;SDS011;2697;42.144;24.794;2024-02-23T07:32:44;31.87;;;15.57;;
5349;SDS011;2697;42.144;24.794;2024-02-23T07:35:10;50.60;;;17.87;;
5349;SDS011;2697;42.144;24.794;2024-02-23T07:37:38;34.60;;;17.77;;
5349;SDS011;2697;42.144;24.794;2024-02-23T07:40:04;33.93;;;16.83;;
5349;SDS011;2697;42.144;24.794;2024-02-23T07:42:31;37.20;;;18.57;;
5349;SDS011;2697;42.144;24.794;2024-02-23T07:44:57;51.97;;;18.30;;
5349;SDS011;2697;42.144;24.794;2024-02-23T07:47:22;32.47;;;16.70;;
5349;SDS011;2697;42.144;24.794;2024-02-23T07:49:48;29.97;;;17.60;;
5349;SDS011;2697;42.144;24.794;2024-02-23T07:52:14;29.80;;;16.00;;
5349;SDS011;2697;42.144;24.794;2024-02-23T07:54:39;30.30;;;16.63;;
5349;SDS011;2697;42.144;24.794;2024-02-23T07:57:04;37.93;;;17.00;;
5349;SDS011;2697;42.144;24.794;2024-02-23T07:59:30;43.53;;;17.10;;
5349;SDS011;2697;42.144;24.794;2024-02-23T08:01:55;27.97;;;14.43;;
5349;SDS011;2697;42.144;24.794;2024-02-23T08:04:21;34.10;;;14.93;;
5349;SDS011;2697;42.144;24.794;2024-02-23T08:06:47;26.40;;;13.33;;
5349;SDS011;2697;42.144;24.794;2024-02-23T08:09:13;31.63;;;15.17;;
5349;SDS011;2697;42.144;24.794;2024-02-23T08:11:38;36.83;;;14.47;;
5349;SDS011;2697;42.144;24.794;2024-02-23T08:14:04;30.40;;;15.50;;
5349;SDS011;2697;42.144;24.794;2024-02-23T08:16:29;33.70;;;14.30;;
5349;SDS011;2697;42.144;24.794;2024-02-23T08:18:55;25.63;;;13.90;;
5349;SDS011;2697;42.144;24.794;2024-02-23T08:21:20;25.87;;;14.90;;
5349;SDS011;2697;42.144;24.794;2024-02-23T08:23:45;23.00;;;14.47;;
5349;SDS011;2697;42.144;24.794;2024-02-23T08:26:11;34.83;;;15.30;;
5349;SDS011;2697;42.144;24.794;2024-02-23T08:28:36;37.30;;;16.60;;
5349;SDS011;2697;42.144;24.794;2024-02-23T08:31:02;36.77;;;15.67;;
5349;SDS011;2697;42.144;24.794;2024-02-23T08:33:27;43.03;;;17.20;;
5349;SDS011;2697;42.144;24.794;2024-02-23T08:35:53;30.43;;;14.40;;
5349;SDS011;2697;42.144;24.794;2024-02-23T08:38:19;32.00;;;16.50;;
5349;SDS011;2697;42.144;24.794;2024-02-23T08:40:45;28.30;;;16.00;;
5349;SDS011;2697;42.144;24.794;2024-02-23T08:43:10;38.50;;;16.40;;
5349;SDS011;2697;42.144;24.794;2024-02-23T08:45:36;37.17;;;17.20;;
5349;SDS011;2697;42.144;24.794;2024-02-23T08:48:01;31.27;;;15.83;;
5349;SDS011;2697;42.144;24.794;2024-02-23T08:50:28;28.20;;;14.33;;
5349;SDS011;2697;42.144;24.794;2024-02-23T08:52:54;28.87;;;14.40;;
5349;SDS011;2697;42.144;24.794;2024-02-23T08:55:19;33.23;;;14.27;;
5349;SDS011;2697;42.144;24.794;2024-02-23T08:57:46;42.43;;;17.00;;
5349;SDS011;2697;42.144;24.794;2024-02-23T09:00:12;28.33;;;16.37;;
5349;SDS011;2697;42.144;24.794;2024-02-23T09:02:38;31.40;;;15.87;;
5349;SDS011;2697;42.144;24.794;2024-02-23T09:05:04;29.40;;;15.10;;
5349;SDS011;2697;42.144;24.794;2024-02-23T09:07:30;32.47;;;13.83;;
5349;SDS011;2697;42.144;24.794;2024-02-23T09:09:55;22.63;;;13.20;;
5349;SDS011;2697;42.144;24.794;2024-02-23T09:12:21;26.10;;;15.60;;
5349;SDS011;2697;42.144;24.794;2024-02-23T09:14:46;30.53;;;13.93;;
5349;SDS011;2697;42.144;24.794;2024-02-23T09:17:12;26.90;;;15.07;;
5349;SDS011;2697;42.144;24.794;2024-02-23T09:19:38;22.83;;;14.20;;
5349;SDS011;2697;42.144;24.794;2024-02-23T09:22:03;26.80;;;14.53;;
5349;SDS011;2697;42.144;24.794;2024-02-23T09:24:29;21.27;;;14.43;;
5349;SDS011;2697;42.144;24.794;2024-02-23T09:26:54;28.40;;;14.53;;
5349;SDS011;2697;42.144;24.794;2024-02-23T09:29:20;28.80;;;14.93;;
5349;SDS011;2697;42.144;24.794;2024-02-23T09:31:46;33.27;;;14.33;;
5349;SDS011;2697;42.144;24.794;2024-02-23T09:34:12;34.37;;;15.00;;
5349;SDS011;2697;42.144;24.794;2024-02-23T09:36:37;22.67;;;13.53;;
5349;SDS011;2697;42.144;24.794;2024-02-23T09:39:03;27.97;;;14.60;;
5349;SDS011;2697;42.144;24.794;2024-02-23T09:41:29;26.83;;;15.30;;
5349;SDS011;2697;42.144;24.794;2024-02-23T09:43:57;23.13;;;14.83;;
5349;SDS011;2697;42.144;24.794;2024-02-23T09:46:23;33.50;;;14.97;;
5349;SDS011;2697;42.144;24.794;2024-02-23T09:48:50;26.00;;;14.40;;
5349;SDS011;2697;42.144;24.794;2024-02-23T09:51:16;22.87;;;12.37;;
5349;SDS011;2697;42.144;24.794;2024-02-23T09:53:42;21.50;;;8.27;;
5349;SDS011;2697;42.144;24.794;2024-02-23T09:56:08;23.70;;;13.33;;
5349;SDS011;2697;42.144;24.794;2024-02-23T09:58:37;32.73;;;15.10;;
5349;SDS011;2697;42.144;24.794;2024-02-23T10:01:05;28.50;;;15.27;;
5349;SDS011;2697;42.144;24.794;2024-02-23T10:03:31;29.93;;;14.23;;
5349;SDS011;2697;42.144;24.794;2024-02-23T10:05:57;24.27;;;13.20;;
5349;SDS011;2697;42.144;24.794;2024-02-23T10:08:22;20.97;;;12.77;;
5349;SDS011;2697;42.144;24.794;2024-02-23T10:10:48;20.10;;;11.87;;
5349;SDS011;2697;42.144;24.794;2024-02-23T10:13:20;26.40;;;14.30;;
5349;SDS011;2697;42.144;24.794;2024-02-23T10:15:52;20.57;;;12.53;;
5349;SDS011;2697;42.144;24.794;2024-02-23T10:18:18;23.13;;;13.50;;
5349;SDS011;2697;42.144;24.794;2024-02-23T10:20:44;27.33;;;12.93;;
5349;SDS011;2697;42.144;24.794;2024-02-23T10:23:10;27.50;;;13.93;;
5349;SDS011;2697;42.144;24.794;2024-02-23T10:25:36;28.90;;;12.80;;
5349;SDS011;2697;42.144;24.794;2024-02-23T10:28:05;24.43;;;14.50;;
5349;SDS011;2697;42.144;24.794;2024-02-23T10:30:31;22.40;;;13.77;;
5349;SDS011;2697;42.144;24.794;2024-02-23T10:32:57;22.60;;;12.43;;
5349;SDS011;2697;42.144;24.794;2024-02-23T10:35:23;27.07;;;14.60;;
5349;SDS011;2697;42.144;24.794;2024-02-23T10:37:50;22.83;;;13.20;;
5349;SDS011;2697;42.144;24.794;2024-02-23T10:40:19;25.50;;;13.00;;
5349;SDS011;2697;42.144;24.794;2024-02-23T10:42:47;27.00;;;13.47;;
5349;SDS011;2697;42.144;24.794;2024-02-23T10:45:16;19.10;;;12.63;;
5349;SDS011;2697;42.144;24.794;2024-02-23T10:47:43;28.53;;;13.70;;
5349;SDS011;2697;42.144;24.794;2024-02-23T10:50:09;23.07;;;13.87;;
5349;SDS011;2697;42.144;24.794;2024-02-23T10:52:36;26.90;;;14.33;;
5349;SDS011;2697;42.144;24.794;2024-02-23T10:55:03;23.60;;;12.63;;
5349;SDS011;2697;42.144;24.794;2024-02-23T10:57:31;19.97;;;11.87;;
5349;SDS011;2697;42.144;24.794;2024-02-23T10:59:57;26.43;;;14.00;;
5349;SDS011;2697;42.144;24.794;2024-02-23T11:02:23;20.67;;;13.30;;
5349;SDS011;2697;42.144;24.794;2024-02-23T11:04:51;26.87;;;12.80;;
5349;SDS011;2697;42.144;24.794;2024-02-23T11:07:19;24.73;;;12.47;;
5349;SDS011;2697;42.144;24.794;2024-02-23T11:09:54;16.40;;;10.60;;
5349;SDS011;2697;42.144;24.794;2024-02-23T11:12:26;25.07;;;14.30;;
5349;SDS011;2697;42.144;24.794;2024-02-23T11:14:58;22.57;;;13.00;;
5349;SDS011;2697;42.144;24.794;2024-02-23T11:17:29;22.70;;;11.67;;
5349;SDS011;2697;42.144;24.794;2024-02-23T11:19:55;20.00;;;11.53;;
5349;SDS011;2697;42.144;24.794;2024-02-23T11:22:25;21.23;;;11.90;;
5349;SDS011;2697;42.144;24.794;2024-02-23T11:24:52;29.63;;;13.90;;
5349;SDS011;2697;42.144;24.794;2024-02-23T11:27:17;23.63;;;10.90;;
5349;SDS011;2697;42.144;24.794;2024-02-23T11:29:46;18.10;;;11.30;;
5349;SDS011;2697;42.144;24.794;2024-02-23T11:32:14;19.67;;;11.90;;
5349;SDS011;2697;42.144;24.794;2024-02-23T11:34:41;27.60;;;10.67;;
5349;SDS011;2697;42.144;24.794;2024-02-23T11:37:07;17.10;;;10.77;;
5349;SDS011;2697;42.144;24.794;2024-02-23T11:39:35;19.63;;;12.20;;
5349;SDS011;2697;42.144;24.794;2024-02-23T11:42:03;19.43;;;11.13;;
5349;SDS011;2697;42.144;24.794;2024-02-23T11:44:29;21.90;;;11.80;;
5349;SDS011;2697;42.144;24.794;2024-02-23T11:46:55;21.30;;;12.20;;
5349;SDS011;2697;42.144;24.794;2024-02-23T11:49:20;19.10;;;11.60;;
5349;SDS011;2697;42.144;24.794;2024-02-23T11:51:45;17.70;;;11.43;;
5349;SDS011;2697;42.144;24.794;2024-02-23T11:54:11;27.20;;;12.60;;
5349;SDS011;2697;42.144;24.794;2024-02-23T11:56:37;17.13;;;9.33;;
5349;SDS011;2697;42.144;24.794;2024-02-23T11:59:02;18.83;;;10.53;;
5349;SDS011;2697;42.144;24.794;2024-02-23T12:01:29;21.93;;;9.60;;
5349;SDS011;2697;42.144;24.794;2024-02-23T12:03:55;23.00;;;10.10;;
5349;SDS011;2697;42.144;24.794;2024-02-23T12:06:20;26.00;;;10.40;;
5349;SDS011;2697;42.144;24.794;2024-02-23T12:08:46;18.00;;;9.10;;
5349;SDS011;2697;42.144;24.794;2024-02-23T12:11:12;16.90;;;10.00;;
5349;SDS011;2697;42.144;24.794;2024-02-23T12:13:38;16.60;;;10.80;;
5349;SDS011;2697;42.144;24.794;2024-02-23T12:16:06;17.13;;;10.93;;
5349;SDS011;2697;42.144;24.794;2024-02-23T12:18:32;14.50;;;9.10;;
5349;SDS011;2697;42.144;24.794;2024-02-23T12:20:59;16.40;;;10.07;;
5349;SDS011;2697;42.144;24.794;2024-02-23T12:23:26;15.70;;;9.00;;
5349;SDS011;2697;42.144;24.794;2024-02-23T12:25:52;14.23;;;9.50;;
5349;SDS011;2697;42.144;24.794;2024-02-23T12:28:24;16.40;;;10.10;;
5349;SDS011;2697;42.144;24.794;2024-02-23T12:30:59;18.17;;;10.30;;
5349;SDS011;2697;42.144;24.794;2024-02-23T12:33:29;17.90;;;8.70;;
5349;SDS011;2697;42.144;24.794;2024-02-23T12:35:56;15.73;;;8.40;;
5349;SDS011;2697;42.144;24.794;2024-02-23T12:38:23;12.10;;;7.97;;
5349;SDS011;2697;42.144;24.794;2024-02-23T12:40:49;17.27;;;9.90;;
5349;SDS011;2697;42.144;24.794;2024-02-23T12:43:15;23.53;;;10.00;;
5349;SDS011;2697;42.144;24.794;2024-02-23T12:45:40;12.97;;;9.60;;
5349;SDS011;2697;42.144;24.794;2024-02-23T12:48:06;15.43;;;10.30;;
5349;SDS011;2697;42.144;24.794;2024-02-23T12:50:32;12.50;;;7.20;;
5349;SDS011;2697;42.144;24.794;2024-02-23T12:52:57;13.30;;;9.00;;
5349;SDS011;2697;42.144;24.794;2024-02-23T12:55:23;14.73;;;9.53;;
5349;SDS011;2697;42.144;24.794;2024-02-23T12:57:48;17.33;;;8.70;;
5349;SDS011;2697;42.144;24.794;2024-02-23T13:00:14;12.60;;;8.43;;
5349;SDS011;2697;42.144;24.794;2024-02-23T13:02:39;12.97;;;8.30;;
5349;SDS011;2697;42.144;24.794;2024-02-23T13:05:05;20.80;;;8.90;;
5349;SDS011;2697;42.144;24.794;2024-02-23T13:07:31;11.83;;;7.53;;
5349;SDS011;2697;42.144;24.794;2024-02-23T13:09:57;15.73;;;7.53;;
5349;SDS011;2697;42.144;24.794;2024-02-23T13:12:23;11.00;;;7.10;;
5349;SDS011;2697;42.144;24.794;2024-02-23T13:14:50;13.50;;;6.80;;
5349;SDS011;2697;42.144;24.794;2024-02-23T13:17:16;14.43;;;7.87;;
5349;SDS011;2697;42.144;24.794;2024-02-23T13:19:43;13.37;;;8.40;;
5349;SDS011;2697;42.144;24.794;2024-02-23T13:22:08;17.73;;;8.70;;
5349;SDS011;2697;42.144;24.794;2024-02-23T13:24:34;11.73;;;7.53;;
5349;SDS011;2697;42.144;24.794;2024-02-23T13:26:59;13.03;;;8.30;;
5349;SDS011;2697;42.144;24.794;2024-02-23T13:29:24;17.33;;;8.60;;
5349;SDS011;2697;42.144;24.794;2024-02-23T13:31:50;19.23;;;7.30;;
5349;SDS011;2697;42.144;24.794;2024-02-23T13:34:15;11.80;;;7.23;;
5349;SDS011;2697;42.144;24.794;2024-02-23T13:36:42;19.60;;;8.43;;
5349;SDS011;2697;42.144;24.794;2024-02-23T13:39:09;16.20;;;8.77;;
5349;SDS011;2697;42.144;24.794;2024-02-23T13:41:34;11.87;;;8.30;;
5349;SDS011;2697;42.144;24.794;2024-02-23T13:44:00;12.53;;;8.40;;
5349;SDS011;2697;42.144;24.794;2024-02-23T13:46:25;16.10;;;7.07;;
5349;SDS011;2697;42.144;24.794;2024-02-23T13:49:01;11.50;;;7.00;;
5349;SDS011;2697;42.144;24.794;2024-02-23T13:51:32;14.00;;;7.40;;
5349;SDS011;2697;42.144;24.794;2024-02-23T13:53:58;11.03;;;6.50;;
5349;SDS011;2697;42.144;24.794;2024-02-23T13:56:24;12.23;;;7.07;;
5349;SDS011;2697;42.144;24.794;2024-02-23T13:58:49;8.73;;;6.93;;
5349;SDS011;2697;42.144;24.794;2024-02-23T14:01:15;10.80;;;7.27;;
5349;SDS011;2697;42.144;24.794;2024-02-23T14:03:40;11.10;;;7.80;;
5349;SDS011;2697;42.144;24.794;2024-02-23T14:06:06;15.20;;;7.97;;
5349;SDS011;2697;42.144;24.794;2024-02-23T14:08:31;9.43;;;5.50;;
5349;SDS011;2697;42.144;24.794;2024-02-23T14:10:59;11.47;;;7.20;;
5349;SDS011;2697;42.144;24.794;2024-02-23T14:13:25;14.57;;;7.97;;
5349;SDS011;2697;42.144;24.794;2024-02-23T14:15:51;22.00;;;8.23;;
5349;SDS011;2697;42.144;24.794;2024-02-23T14:18:16;10.20;;;6.30;;
5349;SDS011;2697;42.144;24.794;2024-02-23T14:20:42;11.47;;;7.43;;
5349;SDS011;2697;42.144;24.794;2024-02-23T14:23:07;13.03;;;8.27;;
5349;SDS011;2697;42.144;24.794;2024-02-23T14:25:33;13.57;;;7.60;;
5349;SDS011;2697;42.144;24.794;2024-02-23T14:27:59;12.70;;;7.53;;
5349;SDS011;2697;42.144;24.794;2024-02-23T14:30:24;11.90;;;7.60;;